This is the latest recevied weather packets stored in our database for station/object DL8TF-13. If no packets are shown the sender has not sent any weather packets the latest 10 day(s).
| Time | Temp. | Humidity | Pressure | Rain* | Wind** | Luminosity | Snow |
|---|---|---|---|---|---|---|---|
| 1777823032 | 27.78° C | 24% | 980 hPa | - | - | - | - |
| 1777822432 | 28.89° C | 22% | 980 hPa | - | - | - | - |
| 1777821832 | 29.44° C | 22% | 980 hPa | - | - | - | - |
| 1777821232 | 29.44° C | 23% | 980 hPa | - | - | - | - |
| 1777820632 | 30° C | 22% | 980 hPa | - | - | - | - |
| 1777820032 | 28.89° C | 22% | 980 hPa | - | - | - | - |
| 1777819432 | 31.11° C | 20% | 980 hPa | - | - | - | - |
| 1777818832 | 35° C | 16% | 980 hPa | - | - | - | - |
| 1777818232 | 37.78° C | 14% | 980 hPa | - | - | - | - |
| 1777817632 | 37.22° C | 14% | 981 hPa | - | - | - | - |
| 1777817032 | 37.78° C | 14% | 981 hPa | - | - | - | - |
| 1777816432 | 37.78° C | 15% | 981 hPa | - | - | - | - |
| 1777815832 | 37.78° C | 14% | 981 hPa | - | - | - | - |
| 1777815231 | 34.44° C | 18% | 981 hPa | - | - | - | - |
| 1777814631 | 28.89° C | 24% | 981 hPa | - | - | - | - |
| 1777814031 | 27.22° C | 25% | 981 hPa | - | - | - | - |
| 1777813431 | 27.78° C | 25% | 982 hPa | - | - | - | - |
| 1777812831 | 28.89° C | 22% | 982 hPa | - | - | - | - |
| 1777812231 | 30° C | 22% | 982 hPa | - | - | - | - |
| 1777811631 | 30° C | 22% | 982 hPa | - | - | - | - |
| 1777811031 | 33.33° C | 18% | 982 hPa | - | - | - | - |
| 1777810431 | 34.44° C | 17% | 982 hPa | - | - | - | - |
| 1777809831 | 34.44° C | 17% | 982 hPa | - | - | - | - |
| 1777809230 | 34.44° C | 17% | 982 hPa | - | - | - | - |
| 1777808630 | 34.44° C | 18% | 982 hPa | - | - | - | - |
* Rain since midnight (hover to see other rain measurements)
** Current wind speed in m/s (hover to see current wind gust speed)